sensor_id;sensor_type;location;lat;lon;timestamp;temperature;humidity
19496;DHT22;9888;48.606;9.630;2024-01-15T00:00:02;-3.00;99.90
19496;DHT22;9888;48.606;9.630;2024-01-15T00:02:55;-3.10;99.90
19496;DHT22;9888;48.606;9.630;2024-01-15T00:05:23;-3.10;99.90
19496;DHT22;9888;48.606;9.630;2024-01-15T00:07:50;-3.10;99.90
19496;DHT22;9888;48.606;9.630;2024-01-15T00:10:27;-3.20;99.90
19496;DHT22;9888;48.606;9.630;2024-01-15T00:12:55;-3.20;99.90
19496;DHT22;9888;48.606;9.630;2024-01-15T00:15:22;-3.10;99.90
19496;DHT22;9888;48.606;9.630;2024-01-15T00:17:50;-3.20;99.90
19496;DHT22;9888;48.606;9.630;2024-01-15T00:20:16;-3.10;99.90
19496;DHT22;9888;48.606;9.630;2024-01-15T00:22:44;-3.00;99.90
19496;DHT22;9888;48.606;9.630;2024-01-15T00:25:13;-3.00;99.90
19496;DHT22;9888;48.606;9.630;2024-01-15T00:27:41;-3.00;99.90
19496;DHT22;9888;48.606;9.630;2024-01-15T00:30:08;-2.90;99.90
19496;DHT22;9888;48.606;9.630;2024-01-15T00:33:06;-2.90;99.90
19496;DHT22;9888;48.606;9.630;2024-01-15T00:35:49;-2.80;99.90
19496;DHT22;9888;48.606;9.630;2024-01-15T00:38:16;-2.80;99.90
19496;DHT22;9888;48.606;9.630;2024-01-15T00:40:43;-2.80;99.90
19496;DHT22;9888;48.606;9.630;2024-01-15T00:43:10;-2.70;99.90
19496;DHT22;9888;48.606;9.630;2024-01-15T00:45:37;-2.70;99.90
19496;DHT22;9888;48.606;9.630;2024-01-15T00:48:04;-2.60;99.90
19496;DHT22;9888;48.606;9.630;2024-01-15T00:50:31;-2.60;99.90
19496;DHT22;9888;48.606;9.630;2024-01-15T00:52:59;-2.50;99.90
19496;DHT22;9888;48.606;9.630;2024-01-15T00:55:28;-2.40;99.90
19496;DHT22;9888;48.606;9.630;2024-01-15T00:57:56;-2.40;99.90
19496;DHT22;9888;48.606;9.630;2024-01-15T01:00:23;-2.30;99.90
19496;DHT22;9888;48.606;9.630;2024-01-15T01:06:12;-2.30;99.90
19496;DHT22;9888;48.606;9.630;2024-01-15T01:08:54;-2.20;99.90
19496;DHT22;9888;48.606;9.630;2024-01-15T01:11:21;-2.20;99.90
19496;DHT22;9888;48.606;9.630;2024-01-15T01:13:47;-2.20;99.90
19496;DHT22;9888;48.606;9.630;2024-01-15T01:16:14;-2.20;99.90
19496;DHT22;9888;48.606;9.630;2024-01-15T01:18:43;-2.20;99.90
19496;DHT22;9888;48.606;9.630;2024-01-15T01:21:13;-2.20;99.90
19496;DHT22;9888;48.606;9.630;2024-01-15T01:23:40;-2.20;99.90
19496;DHT22;9888;48.606;9.630;2024-01-15T01:26:07;-2.20;99.90
19496;DHT22;9888;48.606;9.630;2024-01-15T01:28:34;-2.20;99.90
19496;DHT22;9888;48.606;9.630;2024-01-15T01:31:23;-2.20;99.90
19496;DHT22;9888;48.606;9.630;2024-01-15T01:33:54;-2.20;99.90
19496;DHT22;9888;48.606;9.630;2024-01-15T01:36:23;-2.30;99.90
19496;DHT22;9888;48.606;9.630;2024-01-15T01:38:50;-2.20;99.90
19496;DHT22;9888;48.606;9.630;2024-01-15T01:41:25;-2.30;99.90
19496;DHT22;9888;48.606;9.630;2024-01-15T01:43:53;-2.20;99.90
19496;DHT22;9888;48.606;9.630;2024-01-15T01:46:28;-2.30;99.90
19496;DHT22;9888;48.606;9.630;2024-01-15T01:48:56;-2.30;99.90
19496;DHT22;9888;48.606;9.630;2024-01-15T01:51:25;-2.30;99.90
19496;DHT22;9888;48.606;9.630;2024-01-15T01:53:52;-2.30;99.90
19496;DHT22;9888;48.606;9.630;2024-01-15T01:56:19;-2.30;99.90
19496;DHT22;9888;48.606;9.630;2024-01-15T01:58:47;-2.30;99.90
19496;DHT22;9888;48.606;9.630;2024-01-15T02:01:15;-2.30;99.90
19496;DHT22;9888;48.606;9.630;2024-01-15T02:03:48;-2.30;99.90
19496;DHT22;9888;48.606;9.630;2024-01-15T02:06:15;-2.30;99.90
19496;DHT22;9888;48.606;9.630;2024-01-15T02:08:43;-2.30;99.90
19496;DHT22;9888;48.606;9.630;2024-01-15T02:11:11;-2.20;99.90
19496;DHT22;9888;48.606;9.630;2024-01-15T02:13:39;-2.30;99.90
19496;DHT22;9888;48.606;9.630;2024-01-15T02:16:06;-2.20;99.90
19496;DHT22;9888;48.606;9.630;2024-01-15T02:18:43;-2.20;99.90
19496;DHT22;9888;48.606;9.630;2024-01-15T02:21:11;-2.20;99.90
19496;DHT22;9888;48.606;9.630;2024-01-15T02:23:38;-2.20;99.90
19496;DHT22;9888;48.606;9.630;2024-01-15T02:26:06;-2.20;99.90
19496;DHT22;9888;48.606;9.630;2024-01-15T02:28:34;-2.20;99.90
19496;DHT22;9888;48.606;9.630;2024-01-15T02:31:01;-2.20;99.90
19496;DHT22;9888;48.606;9.630;2024-01-15T02:33:28;-2.10;99.90
19496;DHT22;9888;48.606;9.630;2024-01-15T02:35:55;-2.20;99.90
19496;DHT22;9888;48.606;9.630;2024-01-15T02:38:22;-2.20;99.90
19496;DHT22;9888;48.606;9.630;2024-01-15T02:40:55;-2.20;99.90
19496;DHT22;9888;48.606;9.630;2024-01-15T02:43:22;-2.10;99.90
19496;DHT22;9888;48.606;9.630;2024-01-15T02:45:50;-2.10;99.90
19496;DHT22;9888;48.606;9.630;2024-01-15T02:48:18;-2.10;99.90
19496;DHT22;9888;48.606;9.630;2024-01-15T02:50:45;-2.10;99.90
19496;DHT22;9888;48.606;9.630;2024-01-15T02:53:15;-2.20;99.90
19496;DHT22;9888;48.606;9.630;2024-01-15T02:55:47;-2.10;99.90
19496;DHT22;9888;48.606;9.630;2024-01-15T03:01:36;-2.20;99.90
19496;DHT22;9888;48.606;9.630;2024-01-15T03:04:03;-2.10;99.90
19496;DHT22;9888;48.606;9.630;2024-01-15T03:06:30;-2.10;99.90
19496;DHT22;9888;48.606;9.630;2024-01-15T03:08:58;-2.10;99.90
19496;DHT22;9888;48.606;9.630;2024-01-15T03:11:27;-2.10;99.90
19496;DHT22;9888;48.606;9.630;2024-01-15T03:13:54;-2.10;99.90
19496;DHT22;9888;48.606;9.630;2024-01-15T03:19:49;-2.20;99.90
19496;DHT22;9888;48.606;9.630;2024-01-15T03:22:19;-2.10;99.90
19496;DHT22;9888;48.606;9.630;2024-01-15T03:24:49;-2.20;99.90
19496;DHT22;9888;48.606;9.630;2024-01-15T03:27:17;-2.10;99.90
19496;DHT22;9888;48.606;9.630;2024-01-15T03:29:52;-2.10;99.90
19496;DHT22;9888;48.606;9.630;2024-01-15T03:32:25;-2.10;99.90
19496;DHT22;9888;48.606;9.630;2024-01-15T03:34:52;-2.10;99.90
19496;DHT22;9888;48.606;9.630;2024-01-15T03:37:19;-2.10;99.90
19496;DHT22;9888;48.606;9.630;2024-01-15T03:39:47;-2.00;99.90
19496;DHT22;9888;48.606;9.630;2024-01-15T03:42:15;-2.00;99.90
19496;DHT22;9888;48.606;9.630;2024-01-15T03:44:41;-2.00;99.90
19496;DHT22;9888;48.606;9.630;2024-01-15T03:47:09;-1.90;99.90
19496;DHT22;9888;48.606;9.630;2024-01-15T03:49:36;-1.80;99.90
19496;DHT22;9888;48.606;9.630;2024-01-15T03:52:03;-1.90;99.90
19496;DHT22;9888;48.606;9.630;2024-01-15T03:54:31;-1.90;99.90
19496;DHT22;9888;48.606;9.630;2024-01-15T03:56:58;-1.80;99.90
19496;DHT22;9888;48.606;9.630;2024-01-15T03:59:25;-1.80;99.90
19496;DHT22;9888;48.606;9.630;2024-01-15T04:01:53;-1.70;99.90
19496;DHT22;9888;48.606;9.630;2024-01-15T04:04:20;-1.70;99.90
19496;DHT22;9888;48.606;9.630;2024-01-15T04:06:47;-1.70;99.90
19496;DHT22;9888;48.606;9.630;2024-01-15T04:09:18;-1.80;99.90
19496;DHT22;9888;48.606;9.630;2024-01-15T04:11:47;-1.70;99.90
19496;DHT22;9888;48.606;9.630;2024-01-15T04:14:14;-1.80;99.90
19496;DHT22;9888;48.606;9.630;2024-01-15T04:16:42;-1.70;99.90
19496;DHT22;9888;48.606;9.630;2024-01-15T04:19:09;-1.80;99.90
19496;DHT22;9888;48.606;9.630;2024-01-15T04:21:36;-1.70;99.90
19496;DHT22;9888;48.606;9.630;2024-01-15T04:24:03;-1.70;99.90
19496;DHT22;9888;48.606;9.630;2024-01-15T04:26:30;-1.70;99.90
19496;DHT22;9888;48.606;9.630;2024-01-15T04:29:03;-1.70;99.90
19496;DHT22;9888;48.606;9.630;2024-01-15T04:31:31;-1.70;99.90
19496;DHT22;9888;48.606;9.630;2024-01-15T04:33:57;-1.70;99.90
19496;DHT22;9888;48.606;9.630;2024-01-15T04:36:24;-1.70;99.90
19496;DHT22;9888;48.606;9.630;2024-01-15T04:38:52;-1.70;99.90
19496;DHT22;9888;48.606;9.630;2024-01-15T04:41:23;-1.70;99.90
19496;DHT22;9888;48.606;9.630;2024-01-15T04:43:51;-1.70;99.90
19496;DHT22;9888;48.606;9.630;2024-01-15T04:46:18;-1.70;99.90
19496;DHT22;9888;48.606;9.630;2024-01-15T04:48:54;-1.60;99.90
19496;DHT22;9888;48.606;9.630;2024-01-15T04:51:22;-1.60;99.90
19496;DHT22;9888;48.606;9.630;2024-01-15T04:53:49;-1.60;99.90
19496;DHT22;9888;48.606;9.630;2024-01-15T04:56:16;-1.60;99.90
19496;DHT22;9888;48.606;9.630;2024-01-15T04:58:43;-1.60;99.90
19496;DHT22;9888;48.606;9.630;2024-01-15T05:01:10;-1.50;99.90
19496;DHT22;9888;48.606;9.630;2024-01-15T05:03:38;-1.60;99.90
19496;DHT22;9888;48.606;9.630;2024-01-15T05:06:05;-1.50;99.90
19496;DHT22;9888;48.606;9.630;2024-01-15T05:08:33;-1.50;99.90
19496;DHT22;9888;48.606;9.630;2024-01-15T05:11:00;-1.50;99.90
19496;DHT22;9888;48.606;9.630;2024-01-15T05:13:27;-1.60;99.90
19496;DHT22;9888;48.606;9.630;2024-01-15T05:15:54;-1.60;99.90
19496;DHT22;9888;48.606;9.630;2024-01-15T05:18:40;-1.60;99.90
19496;DHT22;9888;48.606;9.630;2024-01-15T05:21:23;-1.60;99.90
19496;DHT22;9888;48.606;9.630;2024-01-15T05:23:50;-1.60;99.90
19496;DHT22;9888;48.606;9.630;2024-01-15T05:26:19;-1.60;99.90
19496;DHT22;9888;48.606;9.630;2024-01-15T05:28:46;-1.60;99.90
19496;DHT22;9888;48.606;9.630;2024-01-15T05:31:14;-1.60;99.90
19496;DHT22;9888;48.606;9.630;2024-01-15T05:33:42;-1.70;99.90
19496;DHT22;9888;48.606;9.630;2024-01-15T05:36:10;-1.60;99.90
19496;DHT22;9888;48.606;9.630;2024-01-15T05:38:45;-1.70;99.90
19496;DHT22;9888;48.606;9.630;2024-01-15T05:44:38;-1.70;99.90
19496;DHT22;9888;48.606;9.630;2024-01-15T05:47:07;-1.60;99.90
19496;DHT22;9888;48.606;9.630;2024-01-15T05:49:34;-1.70;99.90
19496;DHT22;9888;48.606;9.630;2024-01-15T05:52:04;-1.70;99.90
19496;DHT22;9888;48.606;9.630;2024-01-15T05:54:31;-1.70;99.90
19496;DHT22;9888;48.606;9.630;2024-01-15T05:56:58;-1.80;99.90
19496;DHT22;9888;48.606;9.630;2024-01-15T06:02:47;-1.70;99.90
19496;DHT22;9888;48.606;9.630;2024-01-15T06:05:15;-1.80;99.90
19496;DHT22;9888;48.606;9.630;2024-01-15T06:07:51;-1.80;99.90
19496;DHT22;9888;48.606;9.630;2024-01-15T06:10:19;-1.70;99.90
19496;DHT22;9888;48.606;9.630;2024-01-15T06:12:46;-1.70;99.90
19496;DHT22;9888;48.606;9.630;2024-01-15T06:15:16;-1.70;99.90
19496;DHT22;9888;48.606;9.630;2024-01-15T06:17:47;-1.70;99.90
19496;DHT22;9888;48.606;9.630;2024-01-15T06:20:21;-1.70;99.90
19496;DHT22;9888;48.606;9.630;2024-01-15T06:22:50;-1.70;99.90
19496;DHT22;9888;48.606;9.630;2024-01-15T06:25:17;-1.70;99.90
19496;DHT22;9888;48.606;9.630;2024-01-15T06:27:46;-1.80;99.90
19496;DHT22;9888;48.606;9.630;2024-01-15T06:30:17;-1.80;99.90
19496;DHT22;9888;48.606;9.630;2024-01-15T06:32:45;-1.80;99.90
19496;DHT22;9888;48.606;9.630;2024-01-15T06:35:12;-1.80;99.90
19496;DHT22;9888;48.606;9.630;2024-01-15T06:37:48;-1.80;99.90
19496;DHT22;9888;48.606;9.630;2024-01-15T06:40:15;-1.80;99.90
19496;DHT22;9888;48.606;9.630;2024-01-15T06:42:53;-1.80;99.90
19496;DHT22;9888;48.606;9.630;2024-01-15T06:45:20;-1.90;99.90
19496;DHT22;9888;48.606;9.630;2024-01-15T06:48:03;-1.90;99.90
19496;DHT22;9888;48.606;9.630;2024-01-15T06:50:30;-1.90;99.90
19496;DHT22;9888;48.606;9.630;2024-01-15T06:52:57;-1.90;99.90
19496;DHT22;9888;48.606;9.630;2024-01-15T06:55:25;-1.90;99.90
19496;DHT22;9888;48.606;9.630;2024-01-15T06:57:52;-2.00;99.90
19496;DHT22;9888;48.606;9.630;2024-01-15T07:00:20;-1.90;99.90
19496;DHT22;9888;48.606;9.630;2024-01-15T07:02:47;-2.00;99.90
19496;DHT22;9888;48.606;9.630;2024-01-15T07:05:14;-2.00;99.90
19496;DHT22;9888;48.606;9.630;2024-01-15T07:07:41;-1.90;99.90
19496;DHT22;9888;48.606;9.630;2024-01-15T07:13:30;-1.90;99.90
19496;DHT22;9888;48.606;9.630;2024-01-15T07:15:58;-1.90;99.90
19496;DHT22;9888;48.606;9.630;2024-01-15T07:18:26;-1.90;99.90
19496;DHT22;9888;48.606;9.630;2024-01-15T07:20:52;-1.90;99.90
19496;DHT22;9888;48.606;9.630;2024-01-15T07:23:20;-1.90;99.90
19496;DHT22;9888;48.606;9.630;2024-01-15T07:25:47;-1.90;99.90
19496;DHT22;9888;48.606;9.630;2024-01-15T07:28:14;-1.90;99.90
19496;DHT22;9888;48.606;9.630;2024-01-15T07:30:42;-1.90;99.90
19496;DHT22;9888;48.606;9.630;2024-01-15T07:33:08;-1.80;99.90
19496;DHT22;9888;48.606;9.630;2024-01-15T07:35:35;-1.80;99.90
19496;DHT22;9888;48.606;9.630;2024-01-15T07:38:03;-1.80;99.90
19496;DHT22;9888;48.606;9.630;2024-01-15T07:40:30;-1.70;99.90
19496;DHT22;9888;48.606;9.630;2024-01-15T07:43:00;-1.70;99.90
19496;DHT22;9888;48.606;9.630;2024-01-15T07:45:28;-1.70;99.90
19496;DHT22;9888;48.606;9.630;2024-01-15T07:47:54;-1.70;99.90
19496;DHT22;9888;48.606;9.630;2024-01-15T07:50:21;-1.60;99.90
19496;DHT22;9888;48.606;9.630;2024-01-15T07:52:50;-1.60;99.90
19496;DHT22;9888;48.606;9.630;2024-01-15T07:55:17;-1.60;99.90
19496;DHT22;9888;48.606;9.630;2024-01-15T07:57:44;-1.50;99.90
19496;DHT22;9888;48.606;9.630;2024-01-15T08:00:13;-1.50;99.90
19496;DHT22;9888;48.606;9.630;2024-01-15T08:02:40;-1.40;99.90
19496;DHT22;9888;48.606;9.630;2024-01-15T08:05:07;-1.40;99.90
19496;DHT22;9888;48.606;9.630;2024-01-15T08:07:35;-1.40;99.90
19496;DHT22;9888;48.606;9.630;2024-01-15T08:10:03;-1.40;99.90
19496;DHT22;9888;48.606;9.630;2024-01-15T08:12:30;-1.30;99.90
19496;DHT22;9888;48.606;9.630;2024-01-15T08:14:58;-1.30;99.90
19496;DHT22;9888;48.606;9.630;2024-01-15T08:17:26;-1.20;99.90
19496;DHT22;9888;48.606;9.630;2024-01-15T08:19:55;-1.20;99.90
19496;DHT22;9888;48.606;9.630;2024-01-15T08:25:42;-1.00;99.90
19496;DHT22;9888;48.606;9.630;2024-01-15T08:28:09;-1.00;99.90
19496;DHT22;9888;48.606;9.630;2024-01-15T08:33:58;-1.00;99.90
19496;DHT22;9888;48.606;9.630;2024-01-15T08:36:26;-0.90;99.90
19496;DHT22;9888;48.606;9.630;2024-01-15T08:38:54;-0.80;99.90
19496;DHT22;9888;48.606;9.630;2024-01-15T08:41:22;-0.70;99.90
19496;DHT22;9888;48.606;9.630;2024-01-15T08:44:10;-0.70;99.90
19496;DHT22;9888;48.606;9.630;2024-01-15T08:46:38;-0.60;99.90
19496;DHT22;9888;48.606;9.630;2024-01-15T08:49:10;-0.50;99.90
19496;DHT22;9888;48.606;9.630;2024-01-15T08:51:40;-0.50;99.90
19496;DHT22;9888;48.606;9.630;2024-01-15T08:54:12;-0.60;99.90
19496;DHT22;9888;48.606;9.630;2024-01-15T08:56:39;-0.60;99.90
19496;DHT22;9888;48.606;9.630;2024-01-15T08:59:11;-0.60;99.90
19496;DHT22;9888;48.606;9.630;2024-01-15T09:01:44;-0.50;99.90
19496;DHT22;9888;48.606;9.630;2024-01-15T09:04:33;-0.40;99.90
19496;DHT22;9888;48.606;9.630;2024-01-15T09:07:21;-0.40;99.90
19496;DHT22;9888;48.606;9.630;2024-01-15T09:09:53;-0.40;99.90
19496;DHT22;9888;48.606;9.630;2024-01-15T09:12:21;-0.40;99.90
19496;DHT22;9888;48.606;9.630;2024-01-15T09:14:49;-0.40;99.90
19496;DHT22;9888;48.606;9.630;2024-01-15T09:17:17;-0.50;99.90
19496;DHT22;9888;48.606;9.630;2024-01-15T09:19:52;-0.50;99.90
19496;DHT22;9888;48.606;9.630;2024-01-15T09:22:19;-0.50;99.90
19496;DHT22;9888;48.606;9.630;2024-01-15T09:24:46;-0.40;99.90
19496;DHT22;9888;48.606;9.630;2024-01-15T09:27:14;-0.40;99.90
19496;DHT22;9888;48.606;9.630;2024-01-15T09:29:42;-0.30;99.90
19496;DHT22;9888;48.606;9.630;2024-01-15T09:32:12;-0.30;99.90
19496;DHT22;9888;48.606;9.630;2024-01-15T09:34:39;-0.30;99.90
19496;DHT22;9888;48.606;9.630;2024-01-15T09:37:08;-0.40;99.90
19496;DHT22;9888;48.606;9.630;2024-01-15T09:39:37;-0.40;99.90
19496;DHT22;9888;48.606;9.630;2024-01-15T09:42:05;-0.40;99.90
19496;DHT22;9888;48.606;9.630;2024-01-15T09:44:36;-0.40;99.90
19496;DHT22;9888;48.606;9.630;2024-01-15T09:47:05;-0.40;99.90
19496;DHT22;9888;48.606;9.630;2024-01-15T09:49:32;-0.40;99.90
19496;DHT22;9888;48.606;9.630;2024-01-15T09:52:01;-0.40;99.90
19496;DHT22;9888;48.606;9.630;2024-01-15T09:54:29;-0.40;99.90
19496;DHT22;9888;48.606;9.630;2024-01-15T09:56:55;-0.40;99.90
19496;DHT22;9888;48.606;9.630;2024-01-15T09:59:23;-0.40;99.90
19496;DHT22;9888;48.606;9.630;2024-01-15T10:01:52;-0.30;99.90
19496;DHT22;9888;48.606;9.630;2024-01-15T10:04:21;-0.30;99.90
19496;DHT22;9888;48.606;9.630;2024-01-15T10:06:52;-0.20;99.90
19496;DHT22;9888;48.606;9.630;2024-01-15T10:09:18;-0.30;99.90
19496;DHT22;9888;48.606;9.630;2024-01-15T10:11:45;-0.20;99.90
19496;DHT22;9888;48.606;9.630;2024-01-15T10:14:20;-0.20;99.90
19496;DHT22;9888;48.606;9.630;2024-01-15T10:16:46;-0.10;99.90
19496;DHT22;9888;48.606;9.630;2024-01-15T10:19:13;0.00;99.90
19496;DHT22;9888;48.606;9.630;2024-01-15T10:21:45;0.00;99.90
19496;DHT22;9888;48.606;9.630;2024-01-15T10:24:13;0.20;99.90
19496;DHT22;9888;48.606;9.630;2024-01-15T10:26:46;0.10;99.90
19496;DHT22;9888;48.606;9.630;2024-01-15T10:29:15;0.00;99.90
19496;DHT22;9888;48.606;9.630;2024-01-15T10:31:43;0.00;99.90
19496;DHT22;9888;48.606;9.630;2024-01-15T10:34:12;0.00;99.90
19496;DHT22;9888;48.606;9.630;2024-01-15T10:36:45;-0.10;99.90
19496;DHT22;9888;48.606;9.630;2024-01-15T10:39:24;-0.10;99.90
19496;DHT22;9888;48.606;9.630;2024-01-15T10:41:51;-0.10;99.90
19496;DHT22;9888;48.606;9.630;2024-01-15T10:44:18;-0.10;99.90
19496;DHT22;9888;48.606;9.630;2024-01-15T10:47:00;-0.10;99.90
19496;DHT22;9888;48.606;9.630;2024-01-15T10:49:28;-0.10;99.90
19496;DHT22;9888;48.606;9.630;2024-01-15T10:51:57;-0.10;99.90
19496;DHT22;9888;48.606;9.630;2024-01-15T10:54:26;-0.20;99.90
19496;DHT22;9888;48.606;9.630;2024-01-15T10:56:57;-0.10;99.90
19496;DHT22;9888;48.606;9.630;2024-01-15T10:59:25;-0.10;99.90
19496;DHT22;9888;48.606;9.630;2024-01-15T11:01:52;-0.10;99.90
19496;DHT22;9888;48.606;9.630;2024-01-15T11:04:24;-0.20;99.90
19496;DHT22;9888;48.606;9.630;2024-01-15T11:06:56;-0.20;99.90
19496;DHT22;9888;48.606;9.630;2024-01-15T11:09:26;-0.20;99.90
19496;DHT22;9888;48.606;9.630;2024-01-15T11:12:20;-0.20;99.90
19496;DHT22;9888;48.606;9.630;2024-01-15T11:14:49;-0.20;99.90
19496;DHT22;9888;48.606;9.630;2024-01-15T11:17:18;-0.20;99.90
19496;DHT22;9888;48.606;9.630;2024-01-15T11:19:48;-0.20;99.90
19496;DHT22;9888;48.606;9.630;2024-01-15T11:25:13;-0.30;99.90
19496;DHT22;9888;48.606;9.630;2024-01-15T11:27:43;-0.20;99.90
19496;DHT22;9888;48.606;9.630;2024-01-15T11:30:12;-0.20;99.90
19496;DHT22;9888;48.606;9.630;2024-01-15T11:32:40;-0.20;99.90
19496;DHT22;9888;48.606;9.630;2024-01-15T11:35:48;-0.20;99.90
19496;DHT22;9888;48.606;9.630;2024-01-15T11:38:31;-0.30;99.90
19496;DHT22;9888;48.606;9.630;2024-01-15T11:40:59;-0.40;99.90
19496;DHT22;9888;48.606;9.630;2024-01-15T11:43:28;-0.40;99.90
19496;DHT22;9888;48.606;9.630;2024-01-15T11:52:20;-0.50;99.90
19496;DHT22;9888;48.606;9.630;2024-01-15T11:57:50;-0.40;99.90
19496;DHT22;9888;48.606;9.630;2024-01-15T12:03:28;-0.30;99.90
19496;DHT22;9888;48.606;9.630;2024-01-15T12:06:01;-0.20;99.90
19496;DHT22;9888;48.606;9.630;2024-01-15T12:08:28;-0.20;99.90
19496;DHT22;9888;48.606;9.630;2024-01-15T12:10:56;-0.20;99.90
19496;DHT22;9888;48.606;9.630;2024-01-15T12:13:25;-0.30;99.90
19496;DHT22;9888;48.606;9.630;2024-01-15T12:15:54;-0.30;99.90
19496;DHT22;9888;48.606;9.630;2024-01-15T12:18:21;-0.30;99.90
19496;DHT22;9888;48.606;9.630;2024-01-15T12:20:47;-0.30;99.90
19496;DHT22;9888;48.606;9.630;2024-01-15T12:23:20;-0.30;99.90
19496;DHT22;9888;48.606;9.630;2024-01-15T12:25:51;-0.30;99.90
19496;DHT22;9888;48.606;9.630;2024-01-15T12:28:18;-0.40;99.90
19496;DHT22;9888;48.606;9.630;2024-01-15T12:30:49;-0.50;99.90
19496;DHT22;9888;48.606;9.630;2024-01-15T12:33:18;-0.60;99.90
19496;DHT22;9888;48.606;9.630;2024-01-15T12:35:47;-0.70;99.90
19496;DHT22;9888;48.606;9.630;2024-01-15T12:38:16;-0.70;99.90
19496;DHT22;9888;48.606;9.630;2024-01-15T12:40:45;-0.60;99.90
19496;DHT22;9888;48.606;9.630;2024-01-15T12:43:13;-0.60;99.90
19496;DHT22;9888;48.606;9.630;2024-01-15T12:45:40;-0.60;99.90
19496;DHT22;9888;48.606;9.630;2024-01-15T12:48:08;-0.50;99.90
19496;DHT22;9888;48.606;9.630;2024-01-15T12:50:38;-0.50;99.90
19496;DHT22;9888;48.606;9.630;2024-01-15T12:53:06;-0.50;99.90
19496;DHT22;9888;48.606;9.630;2024-01-15T12:55:34;-0.40;99.90
19496;DHT22;9888;48.606;9.630;2024-01-15T12:58:14;-0.40;99.90
19496;DHT22;9888;48.606;9.630;2024-01-15T13:00:41;-0.40;99.90
19496;DHT22;9888;48.606;9.630;2024-01-15T13:03:08;-0.50;99.90
19496;DHT22;9888;48.606;9.630;2024-01-15T13:05:36;-0.50;99.90
19496;DHT22;9888;48.606;9.630;2024-01-15T13:08:07;-0.50;99.90
19496;DHT22;9888;48.606;9.630;2024-01-15T13:10:41;-0.50;99.90
19496;DHT22;9888;48.606;9.630;2024-01-15T13:13:08;-0.50;99.90
19496;DHT22;9888;48.606;9.630;2024-01-15T13:15:35;-0.60;99.90
19496;DHT22;9888;48.606;9.630;2024-01-15T13:18:02;-0.70;99.90
19496;DHT22;9888;48.606;9.630;2024-01-15T13:20:31;-0.70;99.90
19496;DHT22;9888;48.606;9.630;2024-01-15T13:22:58;-0.70;99.90
19496;DHT22;9888;48.606;9.630;2024-01-15T13:25:25;-0.80;99.90
19496;DHT22;9888;48.606;9.630;2024-01-15T13:27:52;-0.90;99.90
19496;DHT22;9888;48.606;9.630;2024-01-15T13:30:19;-0.90;99.90
19496;DHT22;9888;48.606;9.630;2024-01-15T13:32:48;-1.00;99.90
19496;DHT22;9888;48.606;9.630;2024-01-15T13:35:16;-1.00;99.90
19496;DHT22;9888;48.606;9.630;2024-01-15T13:37:43;-1.00;99.90
19496;DHT22;9888;48.606;9.630;2024-01-15T13:40:17;-1.00;99.90
19496;DHT22;9888;48.606;9.630;2024-01-15T13:42:53;-1.10;99.90
19496;DHT22;9888;48.606;9.630;2024-01-15T13:45:21;-1.20;99.90
19496;DHT22;9888;48.606;9.630;2024-01-15T13:47:50;-1.20;99.90
19496;DHT22;9888;48.606;9.630;2024-01-15T13:50:16;-1.20;99.90
19496;DHT22;9888;48.606;9.630;2024-01-15T13:52:43;-1.20;99.90
19496;DHT22;9888;48.606;9.630;2024-01-15T13:55:11;-1.20;99.90
19496;DHT22;9888;48.606;9.630;2024-01-15T13:58:05;-1.20;99.90
19496;DHT22;9888;48.606;9.630;2024-01-15T14:00:33;-1.30;99.90
19496;DHT22;9888;48.606;9.630;2024-01-15T14:03:01;-1.20;99.90
19496;DHT22;9888;48.606;9.630;2024-01-15T14:05:28;-1.20;99.90
19496;DHT22;9888;48.606;9.630;2024-01-15T14:07:55;-1.20;99.90
19496;DHT22;9888;48.606;9.630;2024-01-15T14:10:23;-1.30;99.90
19496;DHT22;9888;48.606;9.630;2024-01-15T14:13:00;-1.30;99.90
19496;DHT22;9888;48.606;9.630;2024-01-15T14:15:28;-1.30;99.90
19496;DHT22;9888;48.606;9.630;2024-01-15T14:17:56;-1.40;99.90
19496;DHT22;9888;48.606;9.630;2024-01-15T14:20:25;-1.40;99.90
19496;DHT22;9888;48.606;9.630;2024-01-15T14:22:52;-1.50;99.90
19496;DHT22;9888;48.606;9.630;2024-01-15T14:25:20;-1.50;99.90
19496;DHT22;9888;48.606;9.630;2024-01-15T14:27:48;-1.60;99.90
19496;DHT22;9888;48.606;9.630;2024-01-15T14:30:16;-1.60;99.90
19496;DHT22;9888;48.606;9.630;2024-01-15T14:32:43;-1.60;99.90
19496;DHT22;9888;48.606;9.630;2024-01-15T14:35:11;-1.60;99.90
19496;DHT22;9888;48.606;9.630;2024-01-15T14:37:38;-1.60;99.90
19496;DHT22;9888;48.606;9.630;2024-01-15T14:40:06;-1.60;99.90
19496;DHT22;9888;48.606;9.630;2024-01-15T14:42:36;-1.60;99.90
19496;DHT22;9888;48.606;9.630;2024-01-15T14:45:04;-1.70;99.90
19496;DHT22;9888;48.606;9.630;2024-01-15T14:47:38;-1.70;99.90
19496;DHT22;9888;48.606;9.630;2024-01-15T14:50:09;-1.80;99.90
19496;DHT22;9888;48.606;9.630;2024-01-15T14:52:37;-1.80;99.90
19496;DHT22;9888;48.606;9.630;2024-01-15T14:55:04;-1.80;99.90
19496;DHT22;9888;48.606;9.630;2024-01-15T14:57:31;-1.80;99.90
19496;DHT22;9888;48.606;9.630;2024-01-15T14:59:58;-1.80;99.90
19496;DHT22;9888;48.606;9.630;2024-01-15T15:02:27;-1.80;99.90
19496;DHT22;9888;48.606;9.630;2024-01-15T15:04:55;-1.80;99.90
19496;DHT22;9888;48.606;9.630;2024-01-15T15:07:23;-1.80;99.90
19496;DHT22;9888;48.606;9.630;2024-01-15T15:09:51;-1.80;99.90
19496;DHT22;9888;48.606;9.630;2024-01-15T15:12:19;-1.80;99.90
19496;DHT22;9888;48.606;9.630;2024-01-15T15:14:47;-1.80;99.90
19496;DHT22;9888;48.606;9.630;2024-01-15T15:17:14;-1.80;99.90
19496;DHT22;9888;48.606;9.630;2024-01-15T15:19:41;-1.80;99.90
19496;DHT22;9888;48.606;9.630;2024-01-15T15:22:08;-1.90;99.90
19496;DHT22;9888;48.606;9.630;2024-01-15T15:24:39;-1.90;99.90
19496;DHT22;9888;48.606;9.630;2024-01-15T15:27:09;-2.00;99.90
19496;DHT22;9888;48.606;9.630;2024-01-15T15:29:37;-2.20;99.90
19496;DHT22;9888;48.606;9.630;2024-01-15T15:32:05;-2.20;99.90
19496;DHT22;9888;48.606;9.630;2024-01-15T15:34:34;-2.30;99.90
19496;DHT22;9888;48.606;9.630;2024-01-15T15:37:01;-2.30;99.90
19496;DHT22;9888;48.606;9.630;2024-01-15T15:39:28;-2.30;99.90
19496;DHT22;9888;48.606;9.630;2024-01-15T15:41:55;-2.30;99.90
19496;DHT22;9888;48.606;9.630;2024-01-15T15:44:22;-2.20;99.90
19496;DHT22;9888;48.606;9.630;2024-01-15T15:46:49;-2.30;99.90
19496;DHT22;9888;48.606;9.630;2024-01-15T15:49:16;-2.30;99.90
19496;DHT22;9888;48.606;9.630;2024-01-15T15:51:44;-2.20;99.90
19496;DHT22;9888;48.606;9.630;2024-01-15T15:54:19;-2.30;99.90
19496;DHT22;9888;48.606;9.630;2024-01-15T15:56:49;-2.30;99.90
19496;DHT22;9888;48.606;9.630;2024-01-15T15:59:18;-2.30;99.90
19496;DHT22;9888;48.606;9.630;2024-01-15T16:02:03;-2.30;99.90
19496;DHT22;9888;48.606;9.630;2024-01-15T16:04:30;-2.20;99.90
19496;DHT22;9888;48.606;9.630;2024-01-15T16:06:57;-2.20;99.90
19496;DHT22;9888;48.606;9.630;2024-01-15T16:09:32;-2.20;99.90
19496;DHT22;9888;48.606;9.630;2024-01-15T16:12:01;-2.20;99.90
19496;DHT22;9888;48.606;9.630;2024-01-15T16:14:29;-2.20;99.90
19496;DHT22;9888;48.606;9.630;2024-01-15T16:16:58;-2.20;99.90
19496;DHT22;9888;48.606;9.630;2024-01-15T16:19:26;-2.20;99.90
19496;DHT22;9888;48.606;9.630;2024-01-15T16:21:54;-2.20;99.90
19496;DHT22;9888;48.606;9.630;2024-01-15T16:24:22;-2.20;99.90
19496;DHT22;9888;48.606;9.630;2024-01-15T16:26:53;-2.20;99.90
19496;DHT22;9888;48.606;9.630;2024-01-15T16:29:22;-2.20;99.90
19496;DHT22;9888;48.606;9.630;2024-01-15T16:31:51;-2.20;99.90
19496;DHT22;9888;48.606;9.630;2024-01-15T16:38:05;-2.20;99.90
19496;DHT22;9888;48.606;9.630;2024-01-15T16:40:34;-2.20;99.90
19496;DHT22;9888;48.606;9.630;2024-01-15T16:43:03;-2.30;99.90
19496;DHT22;9888;48.606;9.630;2024-01-15T16:45:33;-2.30;99.90